sensor_id;sensor_type;location;lat;lon;timestamp;P1;durP1;ratioP1;P2;durP2;ratioP2
54517;SDS011;40423;53.176;6.002;2023-06-24T00:02:06;16.65;;;11.80;;
54517;SDS011;40423;53.176;6.002;2023-06-24T00:04:32;17.10;;;12.80;;
54517;SDS011;40423;53.176;6.002;2023-06-24T00:06:59;15.15;;;12.55;;
54517;SDS011;40423;53.176;6.002;2023-06-24T00:09:26;15.82;;;13.05;;
54517;SDS011;40423;53.176;6.002;2023-06-24T00:11:53;15.10;;;12.73;;
54517;SDS011;40423;53.176;6.002;2023-06-24T00:14:20;14.65;;;13.25;;
54517;SDS011;40423;53.176;6.002;2023-06-24T00:16:47;19.80;;;14.98;;
54517;SDS011;40423;53.176;6.002;2023-06-24T00:19:23;16.02;;;14.23;;
54517;SDS011;40423;53.176;6.002;2023-06-24T00:21:50;14.82;;;12.55;;
54517;SDS011;40423;53.176;6.002;2023-06-24T00:24:17;15.73;;;13.95;;
54517;SDS011;40423;53.176;6.002;2023-06-24T00:26:45;17.38;;;14.18;;
54517;SDS011;40423;53.176;6.002;2023-06-24T00:29:12;17.02;;;14.73;;
54517;SDS011;40423;53.176;6.002;2023-06-24T00:31:38;17.40;;;14.18;;
54517;SDS011;40423;53.176;6.002;2023-06-24T00:34:04;19.42;;;14.43;;
54517;SDS011;40423;53.176;6.002;2023-06-24T00:36:29;14.88;;;13.27;;
54517;SDS011;40423;53.176;6.002;2023-06-24T00:38:57;19.13;;;14.73;;
54517;SDS011;40423;53.176;6.002;2023-06-24T00:41:28;17.00;;;14.35;;
54517;SDS011;40423;53.176;6.002;2023-06-24T00:43:55;14.95;;;12.90;;
54517;SDS011;40423;53.176;6.002;2023-06-24T00:46:22;17.40;;;14.05;;
54517;SDS011;40423;53.176;6.002;2023-06-24T00:48:52;18.13;;;13.27;;
54517;SDS011;40423;53.176;6.002;2023-06-24T00:51:20;16.77;;;15.05;;
54517;SDS011;40423;53.176;6.002;2023-06-24T00:53:46;16.27;;;14.57;;
54517;SDS011;40423;53.176;6.002;2023-06-24T00:56:13;17.00;;;14.15;;
54517;SDS011;40423;53.176;6.002;2023-06-24T00:58:42;14.07;;;11.90;;
54517;SDS011;40423;53.176;6.002;2023-06-24T01:01:09;17.25;;;12.50;;
54517;SDS011;40423;53.176;6.002;2023-06-24T01:03:36;11.73;;;9.95;;
54517;SDS011;40423;53.176;6.002;2023-06-24T01:06:02;14.73;;;11.07;;
54517;SDS011;40423;53.176;6.002;2023-06-24T01:08:28;13.40;;;11.93;;
54517;SDS011;40423;53.176;6.002;2023-06-24T01:10:54;13.20;;;11.80;;
54517;SDS011;40423;53.176;6.002;2023-06-24T01:13:20;11.85;;;10.65;;
54517;SDS011;40423;53.176;6.002;2023-06-24T01:15:46;11.43;;;10.13;;
54517;SDS011;40423;53.176;6.002;2023-06-24T01:32:08;13.27;;;10.98;;
54517;SDS011;40423;53.176;6.002;2023-06-24T01:34:56;14.20;;;9.93;;
54517;SDS011;40423;53.176;6.002;2023-06-24T01:37:47;14.48;;;11.75;;
54517;SDS011;40423;53.176;6.002;2023-06-24T01:40:25;13.20;;;11.25;;
54517;SDS011;40423;53.176;6.002;2023-06-24T01:42:51;15.93;;;10.60;;
54517;SDS011;40423;53.176;6.002;2023-06-24T01:45:23;12.00;;;10.45;;
54517;SDS011;40423;53.176;6.002;2023-06-24T01:47:54;11.30;;;10.20;;
54517;SDS011;40423;53.176;6.002;2023-06-24T01:50:26;13.13;;;11.75;;
54517;SDS011;40423;53.176;6.002;2023-06-24T01:52:57;13.88;;;12.38;;
54517;SDS011;40423;53.176;6.002;2023-06-24T01:55:23;17.27;;;12.90;;
54517;SDS011;40423;53.176;6.002;2023-06-24T01:57:51;13.48;;;11.32;;
54517;SDS011;40423;53.176;6.002;2023-06-24T02:00:19;16.42;;;13.07;;
54517;SDS011;40423;53.176;6.002;2023-06-24T02:02:48;13.23;;;11.52;;
54517;SDS011;40423;53.176;6.002;2023-06-24T02:05:15;16.38;;;13.25;;
54517;SDS011;40423;53.176;6.002;2023-06-24T02:07:44;12.82;;;11.07;;
54517;SDS011;40423;53.176;6.002;2023-06-24T02:10:12;15.68;;;12.52;;
54517;SDS011;40423;53.176;6.002;2023-06-24T02:12:39;16.58;;;13.10;;
54517;SDS011;40423;53.176;6.002;2023-06-24T02:15:06;16.00;;;12.32;;
54517;SDS011;40423;53.176;6.002;2023-06-24T02:17:33;14.98;;;12.20;;
54517;SDS011;40423;53.176;6.002;2023-06-24T02:19:59;14.57;;;12.23;;
54517;SDS011;40423;53.176;6.002;2023-06-24T02:22:26;14.32;;;11.82;;
54517;SDS011;40423;53.176;6.002;2023-06-24T02:24:53;14.82;;;12.65;;
54517;SDS011;40423;53.176;6.002;2023-06-24T02:27:20;14.35;;;12.20;;
54517;SDS011;40423;53.176;6.002;2023-06-24T02:29:47;13.18;;;10.90;;
54517;SDS011;40423;53.176;6.002;2023-06-24T02:32:13;15.48;;;11.88;;
54517;SDS011;40423;53.176;6.002;2023-06-24T02:34:39;14.93;;;11.77;;
54517;SDS011;40423;53.176;6.002;2023-06-24T02:37:05;15.80;;;12.68;;
54517;SDS011;40423;53.176;6.002;2023-06-24T02:39:31;12.02;;;10.20;;
54517;SDS011;40423;53.176;6.002;2023-06-24T02:41:56;10.38;;;8.95;;
54517;SDS011;40423;53.176;6.002;2023-06-24T02:44:22;14.50;;;12.38;;
54517;SDS011;40423;53.176;6.002;2023-06-24T02:46:48;11.63;;;9.93;;
54517;SDS011;40423;53.176;6.002;2023-06-24T02:49:15;12.75;;;9.23;;
54517;SDS011;40423;53.176;6.002;2023-06-24T02:51:43;14.68;;;12.43;;
54517;SDS011;40423;53.176;6.002;2023-06-24T02:54:09;16.10;;;12.57;;
54517;SDS011;40423;53.176;6.002;2023-06-24T02:56:37;14.45;;;11.00;;
54517;SDS011;40423;53.176;6.002;2023-06-24T02:59:06;16.13;;;12.70;;
54517;SDS011;40423;53.176;6.002;2023-06-24T03:01:33;15.30;;;11.13;;
54517;SDS011;40423;53.176;6.002;2023-06-24T03:04:04;15.23;;;11.98;;
54517;SDS011;40423;53.176;6.002;2023-06-24T03:06:30;14.70;;;10.65;;
54517;SDS011;40423;53.176;6.002;2023-06-24T03:08:57;13.35;;;11.95;;
54517;SDS011;40423;53.176;6.002;2023-06-24T03:11:23;13.85;;;11.45;;
54517;SDS011;40423;53.176;6.002;2023-06-24T03:13:48;19.45;;;13.15;;
54517;SDS011;40423;53.176;6.002;2023-06-24T03:16:14;15.90;;;11.52;;
54517;SDS011;40423;53.176;6.002;2023-06-24T03:18:41;15.73;;;12.52;;
54517;SDS011;40423;53.176;6.002;2023-06-24T03:21:07;14.18;;;11.63;;
54517;SDS011;40423;53.176;6.002;2023-06-24T03:23:34;15.05;;;11.75;;
54517;SDS011;40423;53.176;6.002;2023-06-24T03:26:00;12.63;;;11.23;;
54517;SDS011;40423;53.176;6.002;2023-06-24T03:28:28;16.33;;;12.15;;
54517;SDS011;40423;53.176;6.002;2023-06-24T03:30:55;14.55;;;11.45;;
54517;SDS011;40423;53.176;6.002;2023-06-24T03:33:21;14.55;;;12.30;;
54517;SDS011;40423;53.176;6.002;2023-06-24T03:35:47;14.40;;;11.85;;
54517;SDS011;40423;53.176;6.002;2023-06-24T03:38:12;12.00;;;10.75;;
54517;SDS011;40423;53.176;6.002;2023-06-24T03:40:38;13.15;;;11.05;;
54517;SDS011;40423;53.176;6.002;2023-06-24T03:43:04;12.55;;;10.75;;
54517;SDS011;40423;53.176;6.002;2023-06-24T03:45:31;11.82;;;10.60;;
54517;SDS011;40423;53.176;6.002;2023-06-24T03:47:56;14.98;;;10.88;;
54517;SDS011;40423;53.176;6.002;2023-06-24T03:50:22;12.32;;;10.48;;
54517;SDS011;40423;53.176;6.002;2023-06-24T03:52:48;13.13;;;11.18;;
54517;SDS011;40423;53.176;6.002;2023-06-24T03:55:14;12.18;;;10.82;;
54517;SDS011;40423;53.176;6.002;2023-06-24T03:57:39;20.77;;;12.43;;
54517;SDS011;40423;53.176;6.002;2023-06-24T04:00:05;12.77;;;10.95;;
54517;SDS011;40423;53.176;6.002;2023-06-24T04:02:42;13.93;;;11.18;;
54517;SDS011;40423;53.176;6.002;2023-06-24T04:05:10;13.77;;;11.25;;
54517;SDS011;40423;53.176;6.002;2023-06-24T04:07:35;13.52;;;11.32;;
54517;SDS011;40423;53.176;6.002;2023-06-24T04:10:02;14.52;;;11.65;;
54517;SDS011;40423;53.176;6.002;2023-06-24T04:12:35;12.50;;;10.80;;
54517;SDS011;40423;53.176;6.002;2023-06-24T04:15:04;11.88;;;10.00;;
54517;SDS011;40423;53.176;6.002;2023-06-24T04:17:31;14.10;;;12.18;;
54517;SDS011;40423;53.176;6.002;2023-06-24T04:19:57;13.27;;;11.93;;
54517;SDS011;40423;53.176;6.002;2023-06-24T04:22:24;13.73;;;12.18;;
54517;SDS011;40423;53.176;6.002;2023-06-24T04:24:50;12.82;;;11.13;;
54517;SDS011;40423;53.176;6.002;2023-06-24T04:27:16;12.32;;;10.82;;
54517;SDS011;40423;53.176;6.002;2023-06-24T04:29:42;17.23;;;11.70;;
54517;SDS011;40423;53.176;6.002;2023-06-24T04:32:07;14.95;;;12.35;;
54517;SDS011;40423;53.176;6.002;2023-06-24T04:34:33;15.23;;;12.20;;
54517;SDS011;40423;53.176;6.002;2023-06-24T04:36:59;14.52;;;12.05;;
54517;SDS011;40423;53.176;6.002;2023-06-24T04:39:25;15.25;;;12.38;;
54517;SDS011;40423;53.176;6.002;2023-06-24T04:41:50;14.88;;;12.23;;
54517;SDS011;40423;53.176;6.002;2023-06-24T04:44:16;14.98;;;13.38;;
54517;SDS011;40423;53.176;6.002;2023-06-24T04:46:42;15.82;;;12.07;;
54517;SDS011;40423;53.176;6.002;2023-06-24T04:49:08;14.93;;;12.80;;
54517;SDS011;40423;53.176;6.002;2023-06-24T04:51:33;15.48;;;12.45;;
54517;SDS011;40423;53.176;6.002;2023-06-24T04:54:00;16.27;;;12.48;;
54517;SDS011;40423;53.176;6.002;2023-06-24T04:56:26;15.65;;;12.57;;
54517;SDS011;40423;53.176;6.002;2023-06-24T04:58:53;16.40;;;12.65;;
54517;SDS011;40423;53.176;6.002;2023-06-24T05:01:19;16.85;;;13.35;;
54517;SDS011;40423;53.176;6.002;2023-06-24T05:03:44;14.90;;;13.10;;
54517;SDS011;40423;53.176;6.002;2023-06-24T05:06:10;17.75;;;12.43;;
54517;SDS011;40423;53.176;6.002;2023-06-24T05:08:36;15.25;;;13.48;;
54517;SDS011;40423;53.176;6.002;2023-06-24T05:11:01;16.88;;;13.07;;
54517;SDS011;40423;53.176;6.002;2023-06-24T05:13:27;16.25;;;13.05;;
54517;SDS011;40423;53.176;6.002;2023-06-24T05:15:53;15.27;;;13.65;;
54517;SDS011;40423;53.176;6.002;2023-06-24T05:18:19;17.08;;;13.50;;
54517;SDS011;40423;53.176;6.002;2023-06-24T05:20:44;18.60;;;13.82;;
54517;SDS011;40423;53.176;6.002;2023-06-24T05:23:10;15.00;;;11.77;;
54517;SDS011;40423;53.176;6.002;2023-06-24T05:25:36;16.25;;;13.60;;
54517;SDS011;40423;53.176;6.002;2023-06-24T05:28:02;15.80;;;12.90;;
54517;SDS011;40423;53.176;6.002;2023-06-24T05:30:27;17.48;;;13.65;;
54517;SDS011;40423;53.176;6.002;2023-06-24T05:32:53;15.10;;;12.27;;
54517;SDS011;40423;53.176;6.002;2023-06-24T05:35:19;16.88;;;13.35;;
54517;SDS011;40423;53.176;6.002;2023-06-24T05:37:45;15.65;;;12.77;;
54517;SDS011;40423;53.176;6.002;2023-06-24T05:40:10;15.88;;;12.48;;
54517;SDS011;40423;53.176;6.002;2023-06-24T05:42:38;13.45;;;12.05;;
54517;SDS011;40423;53.176;6.002;2023-06-24T05:45:04;13.88;;;12.48;;
54517;SDS011;40423;53.176;6.002;2023-06-24T05:47:31;16.23;;;13.02;;
54517;SDS011;40423;53.176;6.002;2023-06-24T05:49:57;15.52;;;12.23;;
54517;SDS011;40423;53.176;6.002;2023-06-24T05:52:23;15.20;;;12.52;;
54517;SDS011;40423;53.176;6.002;2023-06-24T05:54:49;16.40;;;13.38;;
54517;SDS011;40423;53.176;6.002;2023-06-24T05:57:15;17.52;;;13.27;;
54517;SDS011;40423;53.176;6.002;2023-06-24T05:59:41;16.23;;;12.57;;
54517;SDS011;40423;53.176;6.002;2023-06-24T06:02:06;16.73;;;12.55;;
54517;SDS011;40423;53.176;6.002;2023-06-24T06:04:32;13.80;;;12.27;;
54517;SDS011;40423;53.176;6.002;2023-06-24T06:06:58;14.88;;;12.05;;
54517;SDS011;40423;53.176;6.002;2023-06-24T06:09:24;14.32;;;12.25;;
54517;SDS011;40423;53.176;6.002;2023-06-24T06:11:50;15.68;;;12.50;;
54517;SDS011;40423;53.176;6.002;2023-06-24T06:14:15;14.93;;;13.27;;
54517;SDS011;40423;53.176;6.002;2023-06-24T06:16:41;16.13;;;13.13;;
54517;SDS011;40423;53.176;6.002;2023-06-24T06:19:06;16.75;;;12.65;;
54517;SDS011;40423;53.176;6.002;2023-06-24T06:21:32;14.18;;;11.65;;
54517;SDS011;40423;53.176;6.002;2023-06-24T06:23:58;16.70;;;13.70;;
54517;SDS011;40423;53.176;6.002;2023-06-24T06:26:24;16.13;;;13.00;;
54517;SDS011;40423;53.176;6.002;2023-06-24T06:28:50;15.60;;;12.55;;
54517;SDS011;40423;53.176;6.002;2023-06-24T06:31:16;14.52;;;13.02;;
54517;SDS011;40423;53.176;6.002;2023-06-24T06:33:42;17.17;;;13.63;;
54517;SDS011;40423;53.176;6.002;2023-06-24T06:36:08;16.65;;;12.82;;
54517;SDS011;40423;53.176;6.002;2023-06-24T06:38:34;19.23;;;13.45;;
54517;SDS011;40423;53.176;6.002;2023-06-24T06:41:00;14.43;;;12.50;;
54517;SDS011;40423;53.176;6.002;2023-06-24T06:43:26;16.27;;;13.75;;
54517;SDS011;40423;53.176;6.002;2023-06-24T06:45:51;15.23;;;13.65;;
54517;SDS011;40423;53.176;6.002;2023-06-24T06:48:17;16.13;;;13.02;;
54517;SDS011;40423;53.176;6.002;2023-06-24T06:50:44;14.68;;;12.35;;
54517;SDS011;40423;53.176;6.002;2023-06-24T06:53:10;15.38;;;13.25;;
54517;SDS011;40423;53.176;6.002;2023-06-24T06:55:36;18.15;;;13.82;;
54517;SDS011;40423;53.176;6.002;2023-06-24T06:58:04;14.73;;;12.90;;
54517;SDS011;40423;53.176;6.002;2023-06-24T07:00:30;15.80;;;12.98;;
54517;SDS011;40423;53.176;6.002;2023-06-24T07:02:56;19.63;;;12.25;;
54517;SDS011;40423;53.176;6.002;2023-06-24T07:05:21;14.88;;;12.57;;
54517;SDS011;40423;53.176;6.002;2023-06-24T07:07:47;13.88;;;12.48;;
54517;SDS011;40423;53.176;6.002;2023-06-24T07:10:15;16.17;;;12.43;;
54517;SDS011;40423;53.176;6.002;2023-06-24T07:12:42;15.25;;;13.50;;
54517;SDS011;40423;53.176;6.002;2023-06-24T07:15:08;17.73;;;12.88;;
54517;SDS011;40423;53.176;6.002;2023-06-24T07:17:34;14.57;;;12.90;;
54517;SDS011;40423;53.176;6.002;2023-06-24T07:20:00;17.08;;;12.90;;
54517;SDS011;40423;53.176;6.002;2023-06-24T07:22:25;15.57;;;12.98;;
54517;SDS011;40423;53.176;6.002;2023-06-24T07:24:51;16.23;;;12.80;;
54517;SDS011;40423;53.176;6.002;2023-06-24T07:27:17;15.93;;;13.73;;
54517;SDS011;40423;53.176;6.002;2023-06-24T07:29:42;14.43;;;12.13;;
54517;SDS011;40423;53.176;6.002;2023-06-24T07:32:08;16.90;;;12.88;;
54517;SDS011;40423;53.176;6.002;2023-06-24T07:34:37;13.68;;;12.30;;
54517;SDS011;40423;53.176;6.002;2023-06-24T07:37:02;16.50;;;13.27;;
54517;SDS011;40423;53.176;6.002;2023-06-24T07:39:28;15.40;;;12.48;;
54517;SDS011;40423;53.176;6.002;2023-06-24T07:41:54;15.35;;;12.75;;
54517;SDS011;40423;53.176;6.002;2023-06-24T07:44:20;18.85;;;13.43;;
54517;SDS011;40423;53.176;6.002;2023-06-24T07:46:45;14.57;;;12.95;;
54517;SDS011;40423;53.176;6.002;2023-06-24T07:49:11;18.08;;;13.48;;
54517;SDS011;40423;53.176;6.002;2023-06-24T07:51:37;15.00;;;12.95;;
54517;SDS011;40423;53.176;6.002;2023-06-24T07:54:02;15.73;;;13.32;;
54517;SDS011;40423;53.176;6.002;2023-06-24T07:56:28;14.98;;;13.18;;
54517;SDS011;40423;53.176;6.002;2023-06-24T07:58:54;13.80;;;12.32;;
54517;SDS011;40423;53.176;6.002;2023-06-24T08:01:20;15.55;;;11.80;;
54517;SDS011;40423;53.176;6.002;2023-06-24T08:03:46;14.52;;;11.93;;
54517;SDS011;40423;53.176;6.002;2023-06-24T08:06:11;15.05;;;12.60;;
54517;SDS011;40423;53.176;6.002;2023-06-24T08:08:37;13.95;;;11.52;;
54517;SDS011;40423;53.176;6.002;2023-06-24T08:11:03;14.52;;;11.10;;
54517;SDS011;40423;53.176;6.002;2023-06-24T08:13:28;16.50;;;11.43;;
54517;SDS011;40423;53.176;6.002;2023-06-24T08:15:54;13.73;;;10.60;;
54517;SDS011;40423;53.176;6.002;2023-06-24T08:18:20;12.00;;;10.20;;
54517;SDS011;40423;53.176;6.002;2023-06-24T08:20:45;13.32;;;10.70;;
54517;SDS011;40423;53.176;6.002;2023-06-24T08:23:11;12.98;;;11.60;;
54517;SDS011;40423;53.176;6.002;2023-06-24T08:25:37;19.08;;;11.20;;
54517;SDS011;40423;53.176;6.002;2023-06-24T08:28:03;16.95;;;11.32;;
54517;SDS011;40423;53.176;6.002;2023-06-24T08:30:29;15.18;;;12.77;;
54517;SDS011;40423;53.176;6.002;2023-06-24T08:32:55;16.13;;;11.52;;
54517;SDS011;40423;53.176;6.002;2023-06-24T08:35:21;13.05;;;11.50;;
54517;SDS011;40423;53.176;6.002;2023-06-24T08:37:46;15.10;;;11.55;;
54517;SDS011;40423;53.176;6.002;2023-06-24T08:40:12;12.35;;;11.02;;
54517;SDS011;40423;53.176;6.002;2023-06-24T08:42:38;14.32;;;11.30;;
54517;SDS011;40423;53.176;6.002;2023-06-24T08:45:04;12.05;;;10.32;;
54517;SDS011;40423;53.176;6.002;2023-06-24T08:47:30;12.80;;;9.70;;
54517;SDS011;40423;53.176;6.002;2023-06-24T08:50:01;9.48;;;8.38;;
54517;SDS011;40423;53.176;6.002;2023-06-24T08:52:35;13.48;;;9.18;;
54517;SDS011;40423;53.176;6.002;2023-06-24T08:55:02;11.70;;;8.02;;
54517;SDS011;40423;53.176;6.002;2023-06-24T08:57:29;10.20;;;7.72;;
54517;SDS011;40423;53.176;6.002;2023-06-24T08:59:55;8.65;;;7.03;;
54517;SDS011;40423;53.176;6.002;2023-06-24T09:02:21;7.60;;;6.05;;
54517;SDS011;40423;53.176;6.002;2023-06-24T09:04:47;7.95;;;6.40;;
54517;SDS011;40423;53.176;6.002;2023-06-24T09:07:23;7.32;;;5.88;;
54517;SDS011;40423;53.176;6.002;2023-06-24T09:09:53;7.30;;;5.90;;
54517;SDS011;40423;53.176;6.002;2023-06-24T09:12:18;10.50;;;6.32;;
54517;SDS011;40423;53.176;6.002;2023-06-24T09:14:50;10.00;;;6.35;;
54517;SDS011;40423;53.176;6.002;2023-06-24T09:17:16;8.10;;;6.18;;
54517;SDS011;40423;53.176;6.002;2023-06-24T09:19:42;7.43;;;5.47;;
54517;SDS011;40423;53.176;6.002;2023-06-24T09:22:09;10.13;;;6.10;;
54517;SDS011;40423;53.176;6.002;2023-06-24T09:24:42;9.93;;;6.18;;
54517;SDS011;40423;53.176;6.002;2023-06-24T09:27:13;12.55;;;6.63;;
54517;SDS011;40423;53.176;6.002;2023-06-24T09:29:40;11.80;;;6.78;;
54517;SDS011;40423;53.176;6.002;2023-06-24T09:32:06;9.50;;;6.43;;
54517;SDS011;40423;53.176;6.002;2023-06-24T09:34:33;8.45;;;5.97;;
54517;SDS011;40423;53.176;6.002;2023-06-24T09:37:00;8.05;;;6.07;;
54517;SDS011;40423;53.176;6.002;2023-06-24T09:39:27;10.07;;;6.65;;
54517;SDS011;40423;53.176;6.002;2023-06-24T09:42:00;9.25;;;6.40;;
54517;SDS011;40423;53.176;6.002;2023-06-24T09:44:27;8.23;;;5.53;;
54517;SDS011;40423;53.176;6.002;2023-06-24T09:46:53;10.23;;;5.88;;
54517;SDS011;40423;53.176;6.002;2023-06-24T09:49:21;7.63;;;5.22;;
54517;SDS011;40423;53.176;6.002;2023-06-24T09:51:47;8.25;;;6.35;;
54517;SDS011;40423;53.176;6.002;2023-06-24T09:54:20;9.45;;;5.20;;
54517;SDS011;40423;53.176;6.002;2023-06-24T09:56:49;7.38;;;5.70;;
54517;SDS011;40423;53.176;6.002;2023-06-24T09:59:17;10.13;;;6.32;;
54517;SDS011;40423;53.176;6.002;2023-06-24T10:01:49;9.45;;;6.22;;
54517;SDS011;40423;53.176;6.002;2023-06-24T10:04:19;9.55;;;6.60;;
54517;SDS011;40423;53.176;6.002;2023-06-24T10:06:47;10.95;;;6.20;;
54517;SDS011;40423;53.176;6.002;2023-06-24T10:09:13;17.40;;;6.60;;
54517;SDS011;40423;53.176;6.002;2023-06-24T10:11:42;9.35;;;5.25;;
54517;SDS011;40423;53.176;6.002;2023-06-24T10:14:09;7.07;;;5.47;;
54517;SDS011;40423;53.176;6.002;2023-06-24T10:16:35;8.70;;;5.55;;
54517;SDS011;40423;53.176;6.002;2023-06-24T10:19:01;8.07;;;5.82;;
54517;SDS011;40423;53.176;6.002;2023-06-24T10:24:29;8.50;;;6.28;;
54517;SDS011;40423;53.176;6.002;2023-06-24T10:26:55;7.82;;;5.63;;
54517;SDS011;40423;53.176;6.002;2023-06-24T10:29:36;7.03;;;5.47;;
54517;SDS011;40423;53.176;6.002;2023-06-24T10:32:09;8.48;;;5.00;;
54517;SDS011;40423;53.176;6.002;2023-06-24T10:34:38;8.80;;;5.72;;
54517;SDS011;40423;53.176;6.002;2023-06-24T10:37:22;10.15;;;6.72;;
54517;SDS011;40423;53.176;6.002;2023-06-24T10:39:54;7.35;;;5.10;;
54517;SDS011;40423;53.176;6.002;2023-06-24T10:47:39;7.60;;;5.57;;
54517;SDS011;40423;53.176;6.002;2023-06-24T10:50:06;7.20;;;4.78;;
54517;SDS011;40423;53.176;6.002;2023-06-24T10:52:37;9.60;;;5.90;;
54517;SDS011;40423;53.176;6.002;2023-06-24T10:55:04;7.85;;;5.68;;
54517;SDS011;40423;53.176;6.002;2023-06-24T10:57:30;8.30;;;6.00;;
54517;SDS011;40423;53.176;6.002;2023-06-24T10:59:56;7.55;;;5.25;;
54517;SDS011;40423;53.176;6.002;2023-06-24T11:02:26;10.25;;;6.22;;
54517;SDS011;40423;53.176;6.002;2023-06-24T11:04:53;8.57;;;5.28;;
54517;SDS011;40423;53.176;6.002;2023-06-24T11:07:19;8.77;;;5.85;;
54517;SDS011;40423;53.176;6.002;2023-06-24T11:09:56;9.25;;;5.75;;
54517;SDS011;40423;53.176;6.002;2023-06-24T11:12:30;5.53;;;4.40;;
54517;SDS011;40423;53.176;6.002;2023-06-24T11:14:58;7.38;;;4.25;;
54517;SDS011;40423;53.176;6.002;2023-06-24T11:17:25;5.88;;;4.35;;
54517;SDS011;40423;53.176;6.002;2023-06-24T11:19:55;5.10;;;3.97;;
54517;SDS011;40423;53.176;6.002;2023-06-24T11:22:22;5.93;;;4.65;;
54517;SDS011;40423;53.176;6.002;2023-06-24T11:24:49;5.93;;;4.00;;
54517;SDS011;40423;53.176;6.002;2023-06-24T11:27:15;7.82;;;4.82;;
54517;SDS011;40423;53.176;6.002;2023-06-24T11:29:40;6.25;;;4.75;;
54517;SDS011;40423;53.176;6.002;2023-06-24T11:32:07;8.98;;;5.22;;
54517;SDS011;40423;53.176;6.002;2023-06-24T11:34:34;6.38;;;4.28;;
54517;SDS011;40423;53.176;6.002;2023-06-24T11:37:10;5.95;;;4.70;;
54517;SDS011;40423;53.176;6.002;2023-06-24T11:39:43;8.60;;;5.65;;
54517;SDS011;40423;53.176;6.002;2023-06-24T11:42:09;7.25;;;4.85;;
54517;SDS011;40423;53.176;6.002;2023-06-24T11:44:40;6.70;;;4.43;;
54517;SDS011;40423;53.176;6.002;2023-06-24T11:47:08;6.82;;;4.22;;
54517;SDS011;40423;53.176;6.002;2023-06-24T11:49:53;4.82;;;3.40;;
54517;SDS011;40423;53.176;6.002;2023-06-24T11:55:12;5.57;;;3.28;;
54517;SDS011;40423;53.176;6.002;2023-06-24T11:57:55;6.20;;;3.38;;
54517;SDS011;40423;53.176;6.002;2023-06-24T12:00:28;4.60;;;3.60;;
54517;SDS011;40423;53.176;6.002;2023-06-24T12:03:00;10.13;;;3.30;;
54517;SDS011;40423;53.176;6.002;2023-06-24T12:05:28;4.07;;;2.80;;
54517;SDS011;40423;53.176;6.002;2023-06-24T12:07:59;4.30;;;2.90;;
54517;SDS011;40423;53.176;6.002;2023-06-24T12:10:30;4.78;;;3.33;;
54517;SDS011;40423;53.176;6.002;2023-06-24T12:12:58;4.70;;;2.92;;
54517;SDS011;40423;53.176;6.002;2023-06-24T12:15:25;6.20;;;3.22;;
54517;SDS011;40423;53.176;6.002;2023-06-24T12:17:51;5.05;;;3.33;;
54517;SDS011;40423;53.176;6.002;2023-06-24T12:20:17;5.57;;;3.50;;
54517;SDS011;40423;53.176;6.002;2023-06-24T12:22:44;6.28;;;4.18;;
54517;SDS011;40423;53.176;6.002;2023-06-24T12:25:10;4.63;;;3.35;;
54517;SDS011;40423;53.176;6.002;2023-06-24T12:27:37;4.82;;;3.75;;
54517;SDS011;40423;53.176;6.002;2023-06-24T12:30:03;7.03;;;3.33;;
54517;SDS011;40423;53.176;6.002;2023-06-24T12:32:29;5.03;;;2.85;;
54517;SDS011;40423;53.176;6.002;2023-06-24T12:34:55;3.95;;;2.80;;
54517;SDS011;40423;53.176;6.002;2023-06-24T12:37:21;5.07;;;2.60;;
54517;SDS011;40423;53.176;6.002;2023-06-24T12:39:47;3.92;;;2.50;;
54517;SDS011;40423;53.176;6.002;2023-06-24T12:42:16;4.40;;;2.90;;
54517;SDS011;40423;53.176;6.002;2023-06-24T12:44:41;4.72;;;2.90;;
54517;SDS011;40423;53.176;6.002;2023-06-24T12:47:07;4.10;;;3.10;;
54517;SDS011;40423;53.176;6.002;2023-06-24T12:49:33;5.55;;;3.30;;
54517;SDS011;40423;53.176;6.002;2023-06-24T12:51:59;4.57;;;3.22;;
54517;SDS011;40423;53.176;6.002;2023-06-24T12:54:26;3.92;;;3.13;;
54517;SDS011;40423;53.176;6.002;2023-06-24T12:56:52;5.13;;;2.40;;
54517;SDS011;40423;53.176;6.002;2023-06-24T12:59:17;4.07;;;3.10;;
54517;SDS011;40423;53.176;6.002;2023-06-24T13:01:43;4.13;;;2.83;;
54517;SDS011;40423;53.176;6.002;2023-06-24T13:04:10;5.30;;;3.08;;
54517;SDS011;40423;53.176;6.002;2023-06-24T13:06:36;3.78;;;2.28;;
54517;SDS011;40423;53.176;6.002;2023-06-24T13:09:02;3.20;;;2.28;;
54517;SDS011;40423;53.176;6.002;2023-06-24T13:11:28;4.82;;;3.08;;
54517;SDS011;40423;53.176;6.002;2023-06-24T13:13:54;4.50;;;2.63;;
54517;SDS011;40423;53.176;6.002;2023-06-24T13:16:20;5.35;;;2.60;;
54517;SDS011;40423;53.176;6.002;2023-06-24T13:18:46;4.07;;;2.80;;
54517;SDS011;40423;53.176;6.002;2023-06-24T13:21:12;5.32;;;2.40;;
54517;SDS011;40423;53.176;6.002;2023-06-24T13:23:38;4.25;;;2.63;;
54517;SDS011;40423;53.176;6.002;2023-06-24T13:26:05;4.78;;;2.90;;
54517;SDS011;40423;53.176;6.002;2023-06-24T13:28:33;4.72;;;2.70;;
54517;SDS011;40423;53.176;6.002;2023-06-24T13:30:59;5.72;;;3.08;;
54517;SDS011;40423;53.176;6.002;2023-06-24T13:33:25;4.68;;;2.97;;
54517;SDS011;40423;53.176;6.002;2023-06-24T13:35:51;4.88;;;2.60;;
54517;SDS011;40423;53.176;6.002;2023-06-24T13:38:17;5.75;;;3.10;;
54517;SDS011;40423;53.176;6.002;2023-06-24T13:40:43;6.47;;;2.50;;
54517;SDS011;40423;53.176;6.002;2023-06-24T13:43:09;4.25;;;2.90;;
54517;SDS011;40423;53.176;6.002;2023-06-24T13:45:35;3.45;;;2.75;;
54517;SDS011;40423;53.176;6.002;2023-06-24T13:48:00;4.20;;;3.08;;
54517;SDS011;40423;53.176;6.002;2023-06-24T13:50:27;5.60;;;3.00;;
54517;SDS011;40423;53.176;6.002;2023-06-24T13:52:54;5.35;;;2.83;;
54517;SDS011;40423;53.176;6.002;2023-06-24T13:55:20;5.80;;;3.13;;
54517;SDS011;40423;53.176;6.002;2023-06-24T13:57:47;5.82;;;3.00;;
54517;SDS011;40423;53.176;6.002;2023-06-24T14:00:13;4.78;;;2.78;;
54517;SDS011;40423;53.176;6.002;2023-06-24T14:02:39;3.72;;;2.92;;
54517;SDS011;40423;53.176;6.002;2023-06-24T14:05:06;4.00;;;2.92;;
54517;SDS011;40423;53.176;6.002;2023-06-24T14:07:32;5.65;;;3.08;;
54517;SDS011;40423;53.176;6.002;2023-06-24T14:09:58;2.97;;;2.30;;
54517;SDS011;40423;53.176;6.002;2023-06-24T14:12:24;4.70;;;3.00;;
54517;SDS011;40423;53.176;6.002;2023-06-24T14:14:50;4.47;;;3.42;;
54517;SDS011;40423;53.176;6.002;2023-06-24T14:17:16;4.18;;;3.00;;
54517;SDS011;40423;53.176;6.002;2023-06-24T14:19:42;3.75;;;2.80;;
54517;SDS011;40423;53.176;6.002;2023-06-24T14:22:08;5.13;;;3.17;;
54517;SDS011;40423;53.176;6.002;2023-06-24T14:24:34;4.38;;;2.83;;
54517;SDS011;40423;53.176;6.002;2023-06-24T14:27:00;4.15;;;2.92;;
54517;SDS011;40423;53.176;6.002;2023-06-24T14:29:26;3.50;;;2.65;;
54517;SDS011;40423;53.176;6.002;2023-06-24T14:31:52;5.28;;;3.25;;
54517;SDS011;40423;53.176;6.002;2023-06-24T14:34:18;4.32;;;3.10;;
54517;SDS011;40423;53.176;6.002;2023-06-24T14:36:44;5.18;;;3.30;;
54517;SDS011;40423;53.176;6.002;2023-06-24T14:39:13;5.65;;;2.97;;
54517;SDS011;40423;53.176;6.002;2023-06-24T14:41:40;3.88;;;2.85;;
54517;SDS011;40423;53.176;6.002;2023-06-24T14:44:06;4.25;;;2.65;;
54517;SDS011;40423;53.176;6.002;2023-06-24T14:46:32;5.20;;;3.00;;
54517;SDS011;40423;53.176;6.002;2023-06-24T14:48:57;3.45;;;2.92;;
54517;SDS011;40423;53.176;6.002;2023-06-24T14:51:24;3.75;;;2.97;;
54517;SDS011;40423;53.176;6.002;2023-06-24T14:53:49;4.38;;;2.90;;
54517;SDS011;40423;53.176;6.002;2023-06-24T14:56:15;4.40;;;2.95;;